sensor_id;sensor_type;location;lat;lon;timestamp;P1;durP1;ratioP1;P2;durP2;ratioP2
28577;SDS011;15769;52.248;15.818;2023-04-24T00:00:06;15.88;;;12.23;;
28577;SDS011;15769;52.248;15.818;2023-04-24T00:05:31;16.58;;;12.23;;
28577;SDS011;15769;52.248;15.818;2023-04-24T00:10:33;16.47;;;12.13;;
28577;SDS011;15769;52.248;15.818;2023-04-24T00:15:36;17.43;;;13.53;;
28577;SDS011;15769;52.248;15.818;2023-04-24T00:20:38;15.87;;;12.63;;
28577;SDS011;15769;52.248;15.818;2023-04-24T00:25:41;17.00;;;11.93;;
28577;SDS011;15769;52.248;15.818;2023-04-24T00:30:44;17.38;;;12.40;;
28577;SDS011;15769;52.248;15.818;2023-04-24T00:35:46;22.67;;;14.27;;
28577;SDS011;15769;52.248;15.818;2023-04-24T00:40:49;17.37;;;14.07;;
28577;SDS011;15769;52.248;15.818;2023-04-24T00:45:52;18.90;;;15.30;;
28577;SDS011;15769;52.248;15.818;2023-04-24T00:50:57;23.10;;;15.40;;
28577;SDS011;15769;52.248;15.818;2023-04-24T00:56:01;24.88;;;16.45;;
28577;SDS011;15769;52.248;15.818;2023-04-24T01:01:04;23.55;;;17.35;;
28577;SDS011;15769;52.248;15.818;2023-04-24T01:06:09;24.38;;;17.38;;
28577;SDS011;15769;52.248;15.818;2023-04-24T01:11:12;24.25;;;17.55;;
28577;SDS011;15769;52.248;15.818;2023-04-24T01:16:15;24.55;;;17.98;;
28577;SDS011;15769;52.248;15.818;2023-04-24T01:21:20;24.08;;;16.77;;
28577;SDS011;15769;52.248;15.818;2023-04-24T01:26:25;21.95;;;16.20;;
28577;SDS011;15769;52.248;15.818;2023-04-24T01:31:29;23.17;;;17.80;;
28577;SDS011;15769;52.248;15.818;2023-04-24T01:36:33;25.98;;;17.80;;
28577;SDS011;15769;52.248;15.818;2023-04-24T01:41:37;23.80;;;17.83;;
28577;SDS011;15769;52.248;15.818;2023-04-24T01:46:39;26.43;;;18.20;;
28577;SDS011;15769;52.248;15.818;2023-04-24T01:51:42;24.70;;;17.83;;
28577;SDS011;15769;52.248;15.818;2023-04-24T01:56:45;23.03;;;18.00;;
28577;SDS011;15769;52.248;15.818;2023-04-24T02:01:48;27.13;;;19.70;;
28577;SDS011;15769;52.248;15.818;2023-04-24T02:06:54;25.52;;;18.65;;
28577;SDS011;15769;52.248;15.818;2023-04-24T02:11:57;23.65;;;17.00;;
28577;SDS011;15769;52.248;15.818;2023-04-24T02:17:00;22.83;;;16.52;;
28577;SDS011;15769;52.248;15.818;2023-04-24T02:27:05;22.88;;;16.58;;
28577;SDS011;15769;52.248;15.818;2023-04-24T02:32:09;21.48;;;15.57;;
28577;SDS011;15769;52.248;15.818;2023-04-24T02:37:14;25.52;;;19.05;;
28577;SDS011;15769;52.248;15.818;2023-04-24T02:47:20;20.08;;;15.55;;
28577;SDS011;15769;52.248;15.818;2023-04-24T02:52:23;28.13;;;20.20;;
28577;SDS011;15769;52.248;15.818;2023-04-24T02:57:28;25.30;;;18.50;;
28577;SDS011;15769;52.248;15.818;2023-04-24T03:02:31;24.70;;;17.35;;
28577;SDS011;15769;52.248;15.818;2023-04-24T03:07:34;23.88;;;16.58;;
28577;SDS011;15769;52.248;15.818;2023-04-24T03:12:37;22.33;;;16.60;;
28577;SDS011;15769;52.248;15.818;2023-04-24T03:17:39;21.77;;;16.25;;
28577;SDS011;15769;52.248;15.818;2023-04-24T03:22:42;23.08;;;16.80;;
28577;SDS011;15769;52.248;15.818;2023-04-24T03:27:45;19.75;;;15.50;;
28577;SDS011;15769;52.248;15.818;2023-04-24T03:33:03;21.27;;;15.68;;
28577;SDS011;15769;52.248;15.818;2023-04-24T03:38:10;20.73;;;16.10;;
28577;SDS011;15769;52.248;15.818;2023-04-24T03:43:32;22.88;;;17.05;;
28577;SDS011;15769;52.248;15.818;2023-04-24T03:48:38;24.52;;;17.30;;
28577;SDS011;15769;52.248;15.818;2023-04-24T03:53:42;26.48;;;17.73;;
28577;SDS011;15769;52.248;15.818;2023-04-24T03:58:47;25.70;;;18.88;;
28577;SDS011;15769;52.248;15.818;2023-04-24T04:03:50;22.40;;;15.90;;
28577;SDS011;15769;52.248;15.818;2023-04-24T04:08:56;21.63;;;15.48;;
28577;SDS011;15769;52.248;15.818;2023-04-24T04:13:59;22.23;;;14.98;;
28577;SDS011;15769;52.248;15.818;2023-04-24T04:19:02;27.57;;;19.07;;
28577;SDS011;15769;52.248;15.818;2023-04-24T04:24:06;21.88;;;15.48;;
28577;SDS011;15769;52.248;15.818;2023-04-24T04:29:13;23.17;;;14.40;;
28577;SDS011;15769;52.248;15.818;2023-04-24T04:34:19;17.42;;;13.02;;
28577;SDS011;15769;52.248;15.818;2023-04-24T04:39:22;20.57;;;15.00;;
28577;SDS011;15769;52.248;15.818;2023-04-24T04:44:45;18.77;;;14.13;;
28577;SDS011;15769;52.248;15.818;2023-04-24T04:49:52;18.08;;;13.48;;
28577;SDS011;15769;52.248;15.818;2023-04-24T04:54:59;22.70;;;16.52;;
28577;SDS011;15769;52.248;15.818;2023-04-24T05:00:19;18.25;;;13.77;;
28577;SDS011;15769;52.248;15.818;2023-04-24T05:05:26;22.88;;;16.55;;
28577;SDS011;15769;52.248;15.818;2023-04-24T05:10:29;20.13;;;14.97;;
28577;SDS011;15769;52.248;15.818;2023-04-24T05:15:32;21.63;;;15.95;;
28577;SDS011;15769;52.248;15.818;2023-04-24T05:20:36;22.13;;;15.80;;
28577;SDS011;15769;52.248;15.818;2023-04-24T05:25:39;20.42;;;15.32;;
28577;SDS011;15769;52.248;15.818;2023-04-24T05:30:46;19.38;;;14.30;;
28577;SDS011;15769;52.248;15.818;2023-04-24T05:35:50;17.60;;;13.65;;
28577;SDS011;15769;52.248;15.818;2023-04-24T05:40:55;18.55;;;14.25;;
28577;SDS011;15769;52.248;15.818;2023-04-24T05:46:02;18.17;;;13.95;;
28577;SDS011;15769;52.248;15.818;2023-04-24T05:51:05;17.42;;;13.10;;
28577;SDS011;15769;52.248;15.818;2023-04-24T05:56:08;15.93;;;12.38;;
28577;SDS011;15769;52.248;15.818;2023-04-24T06:06:23;14.55;;;10.85;;
28577;SDS011;15769;52.248;15.818;2023-04-24T06:11:26;12.38;;;10.52;;
28577;SDS011;15769;52.248;15.818;2023-04-24T06:16:29;13.40;;;10.80;;
28577;SDS011;15769;52.248;15.818;2023-04-24T06:21:39;11.23;;;9.65;;
28577;SDS011;15769;52.248;15.818;2023-04-24T06:26:43;14.00;;;9.95;;
28577;SDS011;15769;52.248;15.818;2023-04-24T06:31:49;13.02;;;10.73;;
28577;SDS011;15769;52.248;15.818;2023-04-24T06:36:52;10.75;;;8.38;;
28577;SDS011;15769;52.248;15.818;2023-04-24T06:41:54;9.90;;;6.93;;
28577;SDS011;15769;52.248;15.818;2023-04-24T06:46:58;9.70;;;6.85;;
28577;SDS011;15769;52.248;15.818;2023-04-24T06:52:13;7.57;;;6.38;;
28577;SDS011;15769;52.248;15.818;2023-04-24T06:57:15;8.85;;;6.07;;
28577;SDS011;15769;52.248;15.818;2023-04-24T07:02:18;7.43;;;6.57;;
28577;SDS011;15769;52.248;15.818;2023-04-24T07:07:21;9.15;;;7.10;;
28577;SDS011;15769;52.248;15.818;2023-04-24T07:12:26;8.77;;;6.75;;
28577;SDS011;15769;52.248;15.818;2023-04-24T07:17:29;11.35;;;7.45;;
28577;SDS011;15769;52.248;15.818;2023-04-24T07:22:31;9.63;;;7.13;;
28577;SDS011;15769;52.248;15.818;2023-04-24T07:27:34;6.68;;;5.70;;
28577;SDS011;15769;52.248;15.818;2023-04-24T07:32:38;6.82;;;5.20;;
28577;SDS011;15769;52.248;15.818;2023-04-24T07:37:40;6.65;;;5.45;;
28577;SDS011;15769;52.248;15.818;2023-04-24T07:42:47;5.65;;;4.78;;
28577;SDS011;15769;52.248;15.818;2023-04-24T07:47:50;6.07;;;4.80;;
28577;SDS011;15769;52.248;15.818;2023-04-24T07:52:53;7.65;;;5.10;;
28577;SDS011;15769;52.248;15.818;2023-04-24T07:57:55;6.03;;;5.32;;
28577;SDS011;15769;52.248;15.818;2023-04-24T08:02:58;6.45;;;4.78;;
28577;SDS011;15769;52.248;15.818;2023-04-24T08:08:01;4.90;;;4.40;;
28577;SDS011;15769;52.248;15.818;2023-04-24T08:13:03;5.65;;;4.10;;
28577;SDS011;15769;52.248;15.818;2023-04-24T08:18:09;6.27;;;4.50;;
28577;SDS011;15769;52.248;15.818;2023-04-24T08:23:14;5.75;;;4.65;;
28577;SDS011;15769;52.248;15.818;2023-04-24T08:28:17;3.85;;;3.35;;
28577;SDS011;15769;52.248;15.818;2023-04-24T08:33:22;5.25;;;3.92;;
28577;SDS011;15769;52.248;15.818;2023-04-24T08:38:25;5.90;;;4.07;;
28577;SDS011;15769;52.248;15.818;2023-04-24T08:43:28;6.40;;;3.42;;
28577;SDS011;15769;52.248;15.818;2023-04-24T08:48:30;4.72;;;3.28;;
28577;SDS011;15769;52.248;15.818;2023-04-24T08:53:34;6.28;;;4.53;;
28577;SDS011;15769;52.248;15.818;2023-04-24T08:58:37;4.82;;;4.30;;
28577;SDS011;15769;52.248;15.818;2023-04-24T09:03:40;7.25;;;3.97;;
28577;SDS011;15769;52.248;15.818;2023-04-24T09:08:44;6.57;;;3.85;;
28577;SDS011;15769;52.248;15.818;2023-04-24T09:13:47;3.05;;;2.83;;
28577;SDS011;15769;52.248;15.818;2023-04-24T09:18:50;3.10;;;2.78;;
28577;SDS011;15769;52.248;15.818;2023-04-24T09:24:00;4.30;;;3.40;;
28577;SDS011;15769;52.248;15.818;2023-04-24T09:29:04;4.63;;;3.00;;
28577;SDS011;15769;52.248;15.818;2023-04-24T09:34:07;5.07;;;3.38;;
28577;SDS011;15769;52.248;15.818;2023-04-24T09:39:10;3.17;;;2.60;;
28577;SDS011;15769;52.248;15.818;2023-04-24T09:44:21;2.95;;;2.33;;
28577;SDS011;15769;52.248;15.818;2023-04-24T09:54:36;3.05;;;1.75;;
28577;SDS011;15769;52.248;15.818;2023-04-24T09:59:42;3.00;;;1.90;;
28577;SDS011;15769;52.248;15.818;2023-04-24T10:04:56;1.80;;;1.70;;
28577;SDS011;15769;52.248;15.818;2023-04-24T10:09:59;2.37;;;1.90;;
28577;SDS011;15769;52.248;15.818;2023-04-24T10:15:01;5.20;;;1.90;;
28577;SDS011;15769;52.248;15.818;2023-04-24T10:20:05;2.20;;;1.83;;
28577;SDS011;15769;52.248;15.818;2023-04-24T10:25:09;1.92;;;1.60;;
28577;SDS011;15769;52.248;15.818;2023-04-24T10:30:12;2.28;;;1.90;;
28577;SDS011;15769;52.248;15.818;2023-04-24T10:35:19;1.70;;;1.48;;
28577;SDS011;15769;52.248;15.818;2023-04-24T10:40:31;3.85;;;1.80;;
28577;SDS011;15769;52.248;15.818;2023-04-24T10:45:38;6.53;;;2.90;;
28577;SDS011;15769;52.248;15.818;2023-04-24T11:03:25;5.32;;;2.85;;
28577;SDS011;15769;52.248;15.818;2023-04-24T11:15:17;3.45;;;2.17;;
28577;SDS011;15769;52.248;15.818;2023-04-24T11:34:30;2.50;;;1.95;;
28577;SDS011;15769;52.248;15.818;2023-04-24T11:39:37;3.45;;;2.40;;
28577;SDS011;15769;52.248;15.818;2023-04-24T11:44:39;6.50;;;2.80;;
28577;SDS011;15769;52.248;15.818;2023-04-24T11:49:43;3.00;;;2.42;;
28577;SDS011;15769;52.248;15.818;2023-04-24T11:54:52;3.85;;;1.83;;
28577;SDS011;15769;52.248;15.818;2023-04-24T12:37:46;1.05;;;0.95;;
28577;SDS011;15769;52.248;15.818;2023-04-24T13:09:46;4.70;;;4.20;;
28577;SDS011;15769;52.248;15.818;2023-04-24T13:15:00;13.32;;;10.30;;
28577;SDS011;15769;52.248;15.818;2023-04-24T13:20:04;31.58;;;21.80;;
28577;SDS011;15769;52.248;15.818;2023-04-24T13:25:08;24.30;;;17.45;;
28577;SDS011;15769;52.248;15.818;2023-04-24T13:30:11;12.57;;;10.98;;
28577;SDS011;15769;52.248;15.818;2023-04-24T13:40:17;8.73;;;7.70;;
28577;SDS011;15769;52.248;15.818;2023-04-24T13:45:19;3.40;;;1.75;;
28577;SDS011;15769;52.248;15.818;2023-04-24T13:50:26;2.55;;;1.63;;
28577;SDS011;15769;52.248;15.818;2023-04-24T13:55:29;2.50;;;1.55;;
28577;SDS011;15769;52.248;15.818;2023-04-24T14:00:32;2.38;;;2.17;;
28577;SDS011;15769;52.248;15.818;2023-04-24T14:05:35;2.60;;;1.83;;
28577;SDS011;15769;52.248;15.818;2023-04-24T14:10:39;4.00;;;2.20;;
28577;SDS011;15769;52.248;15.818;2023-04-24T14:15:42;6.40;;;5.10;;
28577;SDS011;15769;52.248;15.818;2023-04-24T14:20:46;10.13;;;7.60;;
28577;SDS011;15769;52.248;15.818;2023-04-24T14:25:49;8.23;;;5.53;;
28577;SDS011;15769;52.248;15.818;2023-04-24T14:30:53;8.70;;;7.88;;
28577;SDS011;15769;52.248;15.818;2023-04-24T14:35:56;7.28;;;5.32;;
28577;SDS011;15769;52.248;15.818;2023-04-24T14:41:04;6.43;;;4.18;;
28577;SDS011;15769;52.248;15.818;2023-04-24T14:46:17;5.20;;;3.83;;
28577;SDS011;15769;52.248;15.818;2023-04-24T14:51:19;19.05;;;11.15;;
28577;SDS011;15769;52.248;15.818;2023-04-24T14:56:22;7.88;;;3.85;;
28577;SDS011;15769;52.248;15.818;2023-04-24T15:01:26;4.22;;;2.80;;
28577;SDS011;15769;52.248;15.818;2023-04-24T15:06:29;3.17;;;2.03;;
28577;SDS011;15769;52.248;15.818;2023-04-24T15:11:34;3.13;;;2.03;;
28577;SDS011;15769;52.248;15.818;2023-04-24T15:16:36;3.17;;;2.88;;
28577;SDS011;15769;52.248;15.818;2023-04-24T15:21:39;6.65;;;4.53;;
28577;SDS011;15769;52.248;15.818;2023-04-24T15:26:45;13.18;;;8.00;;
28577;SDS011;15769;52.248;15.818;2023-04-24T15:31:48;16.37;;;10.77;;
28577;SDS011;15769;52.248;15.818;2023-04-24T15:36:50;13.82;;;7.47;;
28577;SDS011;15769;52.248;15.818;2023-04-24T15:41:53;10.53;;;5.57;;
28577;SDS011;15769;52.248;15.818;2023-04-24T15:46:56;12.52;;;7.35;;
28577;SDS011;15769;52.248;15.818;2023-04-24T15:51:58;10.70;;;6.13;;
28577;SDS011;15769;52.248;15.818;2023-04-24T15:57:03;13.10;;;6.53;;
28577;SDS011;15769;52.248;15.818;2023-04-24T16:02:07;12.75;;;8.07;;
28577;SDS011;15769;52.248;15.818;2023-04-24T16:07:13;12.80;;;9.02;;
28577;SDS011;15769;52.248;15.818;2023-04-24T16:12:57;15.63;;;11.88;;
28577;SDS011;15769;52.248;15.818;2023-04-24T16:18:02;12.93;;;10.02;;
28577;SDS011;15769;52.248;15.818;2023-04-24T16:23:04;7.50;;;6.10;;
28577;SDS011;15769;52.248;15.818;2023-04-24T16:28:07;6.63;;;4.50;;
28577;SDS011;15769;52.248;15.818;2023-04-24T16:33:09;4.03;;;3.30;;
28577;SDS011;15769;52.248;15.818;2023-04-24T16:38:14;3.55;;;2.60;;
28577;SDS011;15769;52.248;15.818;2023-04-24T16:43:17;7.03;;;4.60;;
28577;SDS011;15769;52.248;15.818;2023-04-24T16:48:20;9.57;;;5.80;;
28577;SDS011;15769;52.248;15.818;2023-04-24T16:53:23;9.70;;;7.03;;
28577;SDS011;15769;52.248;15.818;2023-04-24T16:58:26;9.80;;;7.17;;
28577;SDS011;15769;52.248;15.818;2023-04-24T17:03:28;22.03;;;15.73;;
28577;SDS011;15769;52.248;15.818;2023-04-24T17:08:31;28.17;;;24.27;;
28577;SDS011;15769;52.248;15.818;2023-04-24T17:13:34;28.15;;;23.35;;
28577;SDS011;15769;52.248;15.818;2023-04-24T17:18:37;31.67;;;19.80;;
28577;SDS011;15769;52.248;15.818;2023-04-24T17:23:39;42.83;;;23.57;;
28577;SDS011;15769;52.248;15.818;2023-04-24T17:28:42;54.50;;;26.85;;
28577;SDS011;15769;52.248;15.818;2023-04-24T17:33:45;53.37;;;26.17;;
28577;SDS011;15769;52.248;15.818;2023-04-24T17:38:48;33.58;;;20.55;;
28577;SDS011;15769;52.248;15.818;2023-04-24T17:43:51;27.80;;;18.52;;
28577;SDS011;15769;52.248;15.818;2023-04-24T17:48:54;23.63;;;15.00;;
28577;SDS011;15769;52.248;15.818;2023-04-24T17:53:56;39.83;;;23.10;;
28577;SDS011;15769;52.248;15.818;2023-04-24T17:58:59;30.57;;;18.53;;
28577;SDS011;15769;52.248;15.818;2023-04-24T18:09:05;35.10;;;19.33;;
28577;SDS011;15769;52.248;15.818;2023-04-24T18:14:08;41.85;;;22.67;;
28577;SDS011;15769;52.248;15.818;2023-04-24T18:19:11;42.93;;;26.83;;
28577;SDS011;15769;52.248;15.818;2023-04-24T18:24:14;35.50;;;20.98;;
28577;SDS011;15769;52.248;15.818;2023-04-24T18:29:17;32.47;;;18.00;;
28577;SDS011;15769;52.248;15.818;2023-04-24T18:34:19;26.70;;;16.33;;
28577;SDS011;15769;52.248;15.818;2023-04-24T18:39:22;38.63;;;22.80;;
28577;SDS011;15769;52.248;15.818;2023-04-24T18:44:25;39.97;;;26.27;;
28577;SDS011;15769;52.248;15.818;2023-04-24T18:49:28;38.53;;;22.83;;
28577;SDS011;15769;52.248;15.818;2023-04-24T18:54:30;31.02;;;19.63;;
28577;SDS011;15769;52.248;15.818;2023-04-24T18:59:33;30.73;;;18.85;;
28577;SDS011;15769;52.248;15.818;2023-04-24T19:04:36;34.23;;;19.33;;
28577;SDS011;15769;52.248;15.818;2023-04-24T19:09:38;33.97;;;16.50;;
28577;SDS011;15769;52.248;15.818;2023-04-24T19:14:42;35.45;;;17.23;;
28577;SDS011;15769;52.248;15.818;2023-04-24T19:19:44;23.15;;;13.32;;
28577;SDS011;15769;52.248;15.818;2023-04-24T19:24:48;40.72;;;22.75;;
28577;SDS011;15769;52.248;15.818;2023-04-24T19:29:50;44.90;;;30.97;;
28577;SDS011;15769;52.248;15.818;2023-04-24T19:34:53;17.63;;;13.53;;
28577;SDS011;15769;52.248;15.818;2023-04-24T19:39:56;8.93;;;5.97;;
28577;SDS011;15769;52.248;15.818;2023-04-24T19:44:59;6.87;;;4.77;;
28577;SDS011;15769;52.248;15.818;2023-04-24T19:55:05;3.58;;;3.10;;
28577;SDS011;15769;52.248;15.818;2023-04-24T20:00:10;4.00;;;3.03;;
28577;SDS011;15769;52.248;15.818;2023-04-24T20:05:13;3.10;;;2.70;;
28577;SDS011;15769;52.248;15.818;2023-04-24T20:10:18;5.18;;;3.08;;
28577;SDS011;15769;52.248;15.818;2023-04-24T20:15:21;6.10;;;3.80;;
28577;SDS011;15769;52.248;15.818;2023-04-24T20:20:23;4.43;;;2.77;;
28577;SDS011;15769;52.248;15.818;2023-04-24T20:25:27;3.92;;;2.17;;
28577;SDS011;15769;52.248;15.818;2023-04-24T20:30:29;3.00;;;2.60;;
28577;SDS011;15769;52.248;15.818;2023-04-24T20:35:32;3.65;;;3.35;;
28577;SDS011;15769;52.248;15.818;2023-04-24T20:40:37;7.07;;;4.75;;
28577;SDS011;15769;52.248;15.818;2023-04-24T20:45:57;3.95;;;2.75;;
28577;SDS011;15769;52.248;15.818;2023-04-24T20:51:00;3.67;;;3.28;;
28577;SDS011;15769;52.248;15.818;2023-04-24T20:56:03;5.78;;;4.85;;
28577;SDS011;15769;52.248;15.818;2023-04-24T21:01:07;8.02;;;6.43;;
28577;SDS011;15769;52.248;15.818;2023-04-24T21:06:09;4.23;;;3.40;;
28577;SDS011;15769;52.248;15.818;2023-04-24T21:11:12;5.07;;;3.27;;
28577;SDS011;15769;52.248;15.818;2023-04-24T21:16:15;7.87;;;4.80;;
28577;SDS011;15769;52.248;15.818;2023-04-24T21:21:17;3.72;;;2.90;;
28577;SDS011;15769;52.248;15.818;2023-04-24T21:26:21;3.65;;;2.53;;
28577;SDS011;15769;52.248;15.818;2023-04-24T21:31:25;4.72;;;3.00;;
28577;SDS011;15769;52.248;15.818;2023-04-24T21:41:33;1.27;;;1.08;;
28577;SDS011;15769;52.248;15.818;2023-04-24T21:46:36;0.90;;;0.90;;
28577;SDS011;15769;52.248;15.818;2023-04-24T21:51:40;0.75;;;0.75;;
28577;SDS011;15769;52.248;15.818;2023-04-24T21:56:43;0.80;;;0.80;;
28577;SDS011;15769;52.248;15.818;2023-04-24T22:01:45;0.80;;;0.80;;
28577;SDS011;15769;52.248;15.818;2023-04-24T22:06:48;0.90;;;0.90;;
28577;SDS011;15769;52.248;15.818;2023-04-24T22:11:51;1.03;;;0.97;;
28577;SDS011;15769;52.248;15.818;2023-04-24T22:16:54;1.67;;;0.93;;
28577;SDS011;15769;52.248;15.818;2023-04-24T22:21:58;0.98;;;0.90;;
28577;SDS011;15769;52.248;15.818;2023-04-24T22:27:01;1.50;;;1.00;;
28577;SDS011;15769;52.248;15.818;2023-04-24T22:32:04;1.60;;;1.00;;
28577;SDS011;15769;52.248;15.818;2023-04-24T22:37:06;1.03;;;0.90;;
28577;SDS011;15769;52.248;15.818;2023-04-24T22:42:09;1.07;;;1.00;;
28577;SDS011;15769;52.248;15.818;2023-04-24T22:47:12;1.07;;;1.00;;
28577;SDS011;15769;52.248;15.818;2023-04-24T22:52:14;2.45;;;1.30;;
28577;SDS011;15769;52.248;15.818;2023-04-24T23:02:21;1.55;;;1.30;;
28577;SDS011;15769;52.248;15.818;2023-04-24T23:07:24;2.03;;;1.40;;
28577;SDS011;15769;52.248;15.818;2023-04-24T23:12:27;2.08;;;1.40;;
28577;SDS011;15769;52.248;15.818;2023-04-24T23:17:30;1.83;;;1.50;;
28577;SDS011;15769;52.248;15.818;2023-04-24T23:27:36;3.40;;;1.75;;
28577;SDS011;15769;52.248;15.818;2023-04-24T23:32:38;2.10;;;1.50;;
28577;SDS011;15769;52.248;15.818;2023-04-24T23:37:42;3.15;;;1.92;;
28577;SDS011;15769;52.248;15.818;2023-04-24T23:42:45;3.40;;;2.35;;
28577;SDS011;15769;52.248;15.818;2023-04-24T23:48:01;2.55;;;1.75;;
28577;SDS011;15769;52.248;15.818;2023-04-24T23:53:05;2.70;;;2.20;;
28577;SDS011;15769;52.248;15.818;2023-04-24T23:58:08;5.15;;;2.67;;
